sensor_id;sensor_type;location;lat;lon;timestamp;P1;durP1;ratioP1;P2;durP2;ratioP2
68910;SDS011;55953;51.650;-0.522;2022-11-20T00:01:32;50.20;;;20.20;;
68910;SDS011;55953;51.650;-0.522;2022-11-20T00:04:01;53.20;;;21.30;;
68910;SDS011;55953;51.650;-0.522;2022-11-20T00:06:29;48.90;;;20.70;;
68910;SDS011;55953;51.650;-0.522;2022-11-20T00:08:59;52.30;;;20.60;;
68910;SDS011;55953;51.650;-0.522;2022-11-20T00:11:30;44.50;;;19.10;;
68910;SDS011;55953;51.650;-0.522;2022-11-20T00:14:01;56.50;;;24.80;;
68910;SDS011;55953;51.650;-0.522;2022-11-20T00:16:31;69.90;;;30.80;;
68910;SDS011;55953;51.650;-0.522;2022-11-20T00:19:00;88.10;;;39.10;;
68910;SDS011;55953;51.650;-0.522;2022-11-20T00:21:29;97.10;;;45.20;;
68910;SDS011;55953;51.650;-0.522;2022-11-20T00:23:57;101.30;;;49.70;;
68910;SDS011;55953;51.650;-0.522;2022-11-20T00:26:27;85.60;;;43.30;;
68910;SDS011;55953;51.650;-0.522;2022-11-20T00:29:00;79.80;;;35.10;;
68910;SDS011;55953;51.650;-0.522;2022-11-20T00:31:29;90.30;;;44.30;;
68910;SDS011;55953;51.650;-0.522;2022-11-20T00:33:58;89.30;;;42.80;;
68910;SDS011;55953;51.650;-0.522;2022-11-20T00:36:27;84.50;;;40.20;;
68910;SDS011;55953;51.650;-0.522;2022-11-20T00:38:57;66.50;;;32.20;;
68910;SDS011;55953;51.650;-0.522;2022-11-20T00:41:27;71.60;;;32.80;;
68910;SDS011;55953;51.650;-0.522;2022-11-20T00:43:56;51.60;;;27.10;;
68910;SDS011;55953;51.650;-0.522;2022-11-20T00:46:26;55.70;;;24.60;;
68910;SDS011;55953;51.650;-0.522;2022-11-20T00:48:55;44.30;;;20.40;;
68910;SDS011;55953;51.650;-0.522;2022-11-20T00:51:25;42.90;;;18.60;;
68910;SDS011;55953;51.650;-0.522;2022-11-20T00:53:56;35.80;;;16.00;;
68910;SDS011;55953;51.650;-0.522;2022-11-20T00:56:25;35.40;;;15.60;;
68910;SDS011;55953;51.650;-0.522;2022-11-20T00:58:53;40.00;;;15.50;;
68910;SDS011;55953;51.650;-0.522;2022-11-20T01:01:23;35.30;;;15.00;;
68910;SDS011;55953;51.650;-0.522;2022-11-20T01:03:55;33.60;;;14.10;;
68910;SDS011;55953;51.650;-0.522;2022-11-20T01:06:33;27.00;;;14.20;;
68910;SDS011;55953;51.650;-0.522;2022-11-20T01:09:06;35.20;;;14.80;;
68910;SDS011;55953;51.650;-0.522;2022-11-20T01:11:43;35.40;;;15.00;;
68910;SDS011;55953;51.650;-0.522;2022-11-20T01:14:17;34.40;;;14.30;;
68910;SDS011;55953;51.650;-0.522;2022-11-20T01:16:49;34.30;;;15.10;;
68910;SDS011;55953;51.650;-0.522;2022-11-20T01:19:21;36.30;;;15.80;;
68910;SDS011;55953;51.650;-0.522;2022-11-20T01:21:52;33.40;;;14.20;;
68910;SDS011;55953;51.650;-0.522;2022-11-20T01:24:22;38.40;;;15.40;;
68910;SDS011;55953;51.650;-0.522;2022-11-20T01:26:50;37.30;;;15.10;;
68910;SDS011;55953;51.650;-0.522;2022-11-20T01:29:21;34.70;;;15.20;;
68910;SDS011;55953;51.650;-0.522;2022-11-20T01:31:52;36.00;;;16.50;;
68910;SDS011;55953;51.650;-0.522;2022-11-20T01:34:21;34.10;;;14.80;;
68910;SDS011;55953;51.650;-0.522;2022-11-20T01:36:51;39.90;;;16.10;;
68910;SDS011;55953;51.650;-0.522;2022-11-20T01:39:23;34.60;;;15.00;;
68910;SDS011;55953;51.650;-0.522;2022-11-20T01:41:54;41.10;;;15.50;;
68910;SDS011;55953;51.650;-0.522;2022-11-20T01:44:52;31.00;;;15.20;;
68910;SDS011;55953;51.650;-0.522;2022-11-20T01:47:34;37.50;;;15.30;;
68910;SDS011;55953;51.650;-0.522;2022-11-20T01:50:12;39.90;;;15.60;;
68910;SDS011;55953;51.650;-0.522;2022-11-20T01:52:56;35.00;;;14.80;;
68910;SDS011;55953;51.650;-0.522;2022-11-20T01:55:34;32.90;;;14.50;;
68910;SDS011;55953;51.650;-0.522;2022-11-20T01:58:07;37.20;;;15.80;;
68910;SDS011;55953;51.650;-0.522;2022-11-20T02:00:36;35.30;;;15.70;;
68910;SDS011;55953;51.650;-0.522;2022-11-20T02:03:07;37.90;;;15.90;;
68910;SDS011;55953;51.650;-0.522;2022-11-20T02:05:43;40.00;;;16.80;;
68910;SDS011;55953;51.650;-0.522;2022-11-20T02:08:32;38.00;;;15.50;;
68910;SDS011;55953;51.650;-0.522;2022-11-20T02:11:00;36.70;;;16.30;;
68910;SDS011;55953;51.650;-0.522;2022-11-20T02:13:29;34.50;;;15.90;;
68910;SDS011;55953;51.650;-0.522;2022-11-20T02:16:22;37.00;;;15.30;;
68910;SDS011;55953;51.650;-0.522;2022-11-20T02:18:54;30.10;;;14.30;;
68910;SDS011;55953;51.650;-0.522;2022-11-20T02:24:21;32.40;;;15.40;;
68910;SDS011;55953;51.650;-0.522;2022-11-20T02:27:02;34.30;;;14.60;;
68910;SDS011;55953;51.650;-0.522;2022-11-20T02:29:38;37.30;;;14.30;;
68910;SDS011;55953;51.650;-0.522;2022-11-20T02:32:23;35.60;;;14.20;;
68910;SDS011;55953;51.650;-0.522;2022-11-20T02:34:54;35.10;;;14.60;;
68910;SDS011;55953;51.650;-0.522;2022-11-20T02:37:23;37.30;;;14.90;;
68910;SDS011;55953;51.650;-0.522;2022-11-20T02:39:57;35.70;;;15.10;;
68910;SDS011;55953;51.650;-0.522;2022-11-20T02:42:25;34.00;;;13.90;;
68910;SDS011;55953;51.650;-0.522;2022-11-20T02:44:53;30.50;;;13.10;;
68910;SDS011;55953;51.650;-0.522;2022-11-20T02:47:20;34.00;;;14.50;;
68910;SDS011;55953;51.650;-0.522;2022-11-20T02:49:48;30.10;;;12.70;;
68910;SDS011;55953;51.650;-0.522;2022-11-20T02:52:16;36.00;;;13.00;;
68910;SDS011;55953;51.650;-0.522;2022-11-20T02:54:43;27.50;;;13.30;;
68910;SDS011;55953;51.650;-0.522;2022-11-20T02:57:11;25.40;;;12.80;;
68910;SDS011;55953;51.650;-0.522;2022-11-20T02:59:39;31.60;;;12.70;;
68910;SDS011;55953;51.650;-0.522;2022-11-20T03:02:07;28.00;;;12.50;;
68910;SDS011;55953;51.650;-0.522;2022-11-20T03:04:34;31.90;;;12.90;;
68910;SDS011;55953;51.650;-0.522;2022-11-20T03:07:03;30.90;;;12.40;;
68910;SDS011;55953;51.650;-0.522;2022-11-20T03:09:32;27.00;;;12.20;;
68910;SDS011;55953;51.650;-0.522;2022-11-20T03:12:00;28.80;;;11.40;;
68910;SDS011;55953;51.650;-0.522;2022-11-20T03:14:27;30.40;;;12.50;;
68910;SDS011;55953;51.650;-0.522;2022-11-20T03:16:55;29.40;;;11.90;;
68910;SDS011;55953;51.650;-0.522;2022-11-20T03:19:23;27.70;;;11.60;;
68910;SDS011;55953;51.650;-0.522;2022-11-20T03:21:51;28.40;;;12.30;;
68910;SDS011;55953;51.650;-0.522;2022-11-20T03:24:19;25.80;;;11.40;;
68910;SDS011;55953;51.650;-0.522;2022-11-20T03:26:46;28.40;;;11.40;;
68910;SDS011;55953;51.650;-0.522;2022-11-20T03:29:14;30.80;;;11.20;;
68910;SDS011;55953;51.650;-0.522;2022-11-20T03:31:42;28.90;;;10.80;;
68910;SDS011;55953;51.650;-0.522;2022-11-20T03:34:11;24.40;;;10.80;;
68910;SDS011;55953;51.650;-0.522;2022-11-20T03:36:40;28.10;;;11.80;;
68910;SDS011;55953;51.650;-0.522;2022-11-20T03:39:09;28.90;;;11.40;;
68910;SDS011;55953;51.650;-0.522;2022-11-20T03:41:39;24.90;;;11.20;;
68910;SDS011;55953;51.650;-0.522;2022-11-20T03:44:10;22.50;;;11.10;;
68910;SDS011;55953;51.650;-0.522;2022-11-20T03:46:38;29.00;;;11.90;;
68910;SDS011;55953;51.650;-0.522;2022-11-20T03:49:06;27.30;;;12.00;;
68910;SDS011;55953;51.650;-0.522;2022-11-20T03:51:35;25.70;;;11.20;;
68910;SDS011;55953;51.650;-0.522;2022-11-20T03:54:06;24.90;;;12.30;;
68910;SDS011;55953;51.650;-0.522;2022-11-20T03:56:38;27.10;;;10.60;;
68910;SDS011;55953;51.650;-0.522;2022-11-20T03:59:06;22.60;;;10.50;;
68910;SDS011;55953;51.650;-0.522;2022-11-20T04:01:35;23.50;;;10.30;;
68910;SDS011;55953;51.650;-0.522;2022-11-20T04:04:05;21.40;;;10.50;;
68910;SDS011;55953;51.650;-0.522;2022-11-20T04:06:36;21.40;;;10.40;;
68910;SDS011;55953;51.650;-0.522;2022-11-20T04:09:05;26.20;;;10.80;;
68910;SDS011;55953;51.650;-0.522;2022-11-20T04:11:36;27.70;;;10.60;;
68910;SDS011;55953;51.650;-0.522;2022-11-20T04:14:06;24.60;;;10.40;;
68910;SDS011;55953;51.650;-0.522;2022-11-20T04:16:40;22.40;;;10.80;;
68910;SDS011;55953;51.650;-0.522;2022-11-20T04:19:13;24.60;;;9.80;;
68910;SDS011;55953;51.650;-0.522;2022-11-20T04:21:43;22.90;;;9.90;;
68910;SDS011;55953;51.650;-0.522;2022-11-20T04:24:11;21.40;;;10.00;;
68910;SDS011;55953;51.650;-0.522;2022-11-20T04:26:40;21.30;;;9.20;;
68910;SDS011;55953;51.650;-0.522;2022-11-20T04:29:10;24.30;;;8.90;;
68910;SDS011;55953;51.650;-0.522;2022-11-20T04:31:39;19.20;;;9.60;;
68910;SDS011;55953;51.650;-0.522;2022-11-20T04:34:07;21.00;;;9.00;;
68910;SDS011;55953;51.650;-0.522;2022-11-20T04:36:35;18.30;;;8.60;;
68910;SDS011;55953;51.650;-0.522;2022-11-20T04:39:05;18.20;;;8.70;;
68910;SDS011;55953;51.650;-0.522;2022-11-20T04:41:35;24.30;;;9.30;;
68910;SDS011;55953;51.650;-0.522;2022-11-20T04:44:04;16.20;;;8.50;;
68910;SDS011;55953;51.650;-0.522;2022-11-20T04:46:41;17.70;;;9.30;;
68910;SDS011;55953;51.650;-0.522;2022-11-20T04:49:10;17.70;;;7.60;;
68910;SDS011;55953;51.650;-0.522;2022-11-20T04:51:39;16.90;;;8.30;;
68910;SDS011;55953;51.650;-0.522;2022-11-20T04:54:06;19.40;;;8.50;;
68910;SDS011;55953;51.650;-0.522;2022-11-20T04:56:35;15.60;;;7.80;;
68910;SDS011;55953;51.650;-0.522;2022-11-20T04:59:03;20.70;;;8.50;;
68910;SDS011;55953;51.650;-0.522;2022-11-20T05:01:31;17.50;;;7.40;;
68910;SDS011;55953;51.650;-0.522;2022-11-20T05:04:00;17.30;;;8.10;;
68910;SDS011;55953;51.650;-0.522;2022-11-20T05:06:27;18.10;;;8.10;;
68910;SDS011;55953;51.650;-0.522;2022-11-20T05:08:55;18.10;;;7.40;;
68910;SDS011;55953;51.650;-0.522;2022-11-20T05:11:23;19.30;;;7.70;;
68910;SDS011;55953;51.650;-0.522;2022-11-20T05:13:51;16.30;;;8.40;;
68910;SDS011;55953;51.650;-0.522;2022-11-20T05:16:22;14.80;;;7.70;;
68910;SDS011;55953;51.650;-0.522;2022-11-20T05:18:53;18.90;;;7.90;;
68910;SDS011;55953;51.650;-0.522;2022-11-20T05:21:22;17.10;;;7.70;;
68910;SDS011;55953;51.650;-0.522;2022-11-20T05:23:49;16.10;;;6.80;;
68910;SDS011;55953;51.650;-0.522;2022-11-20T05:26:20;16.20;;;6.70;;
68910;SDS011;55953;51.650;-0.522;2022-11-20T05:28:50;13.60;;;7.10;;
68910;SDS011;55953;51.650;-0.522;2022-11-20T05:31:20;14.30;;;6.80;;
68910;SDS011;55953;51.650;-0.522;2022-11-20T05:33:55;15.90;;;6.40;;
68910;SDS011;55953;51.650;-0.522;2022-11-20T05:36:24;17.40;;;7.00;;
68910;SDS011;55953;51.650;-0.522;2022-11-20T05:38:52;13.20;;;6.30;;
68910;SDS011;55953;51.650;-0.522;2022-11-20T05:41:27;14.70;;;6.20;;
68910;SDS011;55953;51.650;-0.522;2022-11-20T05:43:56;14.20;;;6.50;;
68910;SDS011;55953;51.650;-0.522;2022-11-20T05:46:25;10.40;;;6.10;;
68910;SDS011;55953;51.650;-0.522;2022-11-20T05:48:56;14.00;;;6.40;;
68910;SDS011;55953;51.650;-0.522;2022-11-20T05:51:25;11.00;;;6.00;;
68910;SDS011;55953;51.650;-0.522;2022-11-20T05:53:55;14.20;;;6.00;;
68910;SDS011;55953;51.650;-0.522;2022-11-20T05:56:23;10.70;;;6.00;;
68910;SDS011;55953;51.650;-0.522;2022-11-20T05:58:51;12.90;;;6.00;;
68910;SDS011;55953;51.650;-0.522;2022-11-20T06:01:22;14.70;;;6.30;;
68910;SDS011;55953;51.650;-0.522;2022-11-20T06:03:53;12.00;;;6.00;;
68910;SDS011;55953;51.650;-0.522;2022-11-20T06:06:21;13.00;;;5.60;;
68910;SDS011;55953;51.650;-0.522;2022-11-20T06:08:50;10.40;;;5.70;;
68910;SDS011;55953;51.650;-0.522;2022-11-20T06:11:17;10.60;;;5.40;;
68910;SDS011;55953;51.650;-0.522;2022-11-20T06:13:46;10.60;;;5.80;;
68910;SDS011;55953;51.650;-0.522;2022-11-20T06:16:17;11.40;;;6.10;;
68910;SDS011;55953;51.650;-0.522;2022-11-20T06:18:47;13.90;;;6.10;;
68910;SDS011;55953;51.650;-0.522;2022-11-20T06:21:17;10.70;;;6.10;;
68910;SDS011;55953;51.650;-0.522;2022-11-20T06:23:47;11.50;;;6.20;;
68910;SDS011;55953;51.650;-0.522;2022-11-20T06:26:19;16.20;;;7.00;;
68910;SDS011;55953;51.650;-0.522;2022-11-20T06:28:50;13.70;;;6.90;;
68910;SDS011;55953;51.650;-0.522;2022-11-20T06:31:22;15.60;;;6.90;;
68910;SDS011;55953;51.650;-0.522;2022-11-20T06:33:51;13.80;;;6.60;;
68910;SDS011;55953;51.650;-0.522;2022-11-20T06:36:21;14.50;;;6.60;;
68910;SDS011;55953;51.650;-0.522;2022-11-20T06:38:50;14.00;;;6.80;;
68910;SDS011;55953;51.650;-0.522;2022-11-20T06:41:20;14.80;;;6.70;;
68910;SDS011;55953;51.650;-0.522;2022-11-20T06:43:49;14.10;;;6.20;;
68910;SDS011;55953;51.650;-0.522;2022-11-20T06:46:18;13.20;;;6.60;;
68910;SDS011;55953;51.650;-0.522;2022-11-20T06:48:48;13.90;;;5.90;;
68910;SDS011;55953;51.650;-0.522;2022-11-20T06:51:17;8.70;;;5.00;;
68910;SDS011;55953;51.650;-0.522;2022-11-20T06:53:45;9.10;;;4.90;;
68910;SDS011;55953;51.650;-0.522;2022-11-20T06:56:12;8.90;;;4.60;;
68910;SDS011;55953;51.650;-0.522;2022-11-20T06:58:40;9.30;;;5.40;;
68910;SDS011;55953;51.650;-0.522;2022-11-20T07:01:13;9.50;;;5.40;;
68910;SDS011;55953;51.650;-0.522;2022-11-20T07:03:42;9.30;;;5.70;;
68910;SDS011;55953;51.650;-0.522;2022-11-20T07:06:10;10.90;;;5.40;;
68910;SDS011;55953;51.650;-0.522;2022-11-20T07:08:38;10.40;;;4.90;;
68910;SDS011;55953;51.650;-0.522;2022-11-20T07:11:06;11.10;;;5.60;;
68910;SDS011;55953;51.650;-0.522;2022-11-20T07:13:35;9.10;;;5.10;;
68910;SDS011;55953;51.650;-0.522;2022-11-20T07:16:06;8.20;;;4.70;;
68910;SDS011;55953;51.650;-0.522;2022-11-20T07:18:35;10.10;;;5.40;;
68910;SDS011;55953;51.650;-0.522;2022-11-20T07:21:06;10.80;;;5.30;;
68910;SDS011;55953;51.650;-0.522;2022-11-20T07:23:35;7.90;;;5.00;;
68910;SDS011;55953;51.650;-0.522;2022-11-20T07:26:06;6.50;;;4.10;;
68910;SDS011;55953;51.650;-0.522;2022-11-20T07:28:35;7.80;;;4.10;;
68910;SDS011;55953;51.650;-0.522;2022-11-20T07:31:03;9.80;;;3.80;;
68910;SDS011;55953;51.650;-0.522;2022-11-20T07:33:32;7.00;;;3.80;;
68910;SDS011;55953;51.650;-0.522;2022-11-20T07:36:00;8.00;;;3.90;;
68910;SDS011;55953;51.650;-0.522;2022-11-20T07:38:28;7.30;;;4.10;;
68910;SDS011;55953;51.650;-0.522;2022-11-20T07:40:57;6.90;;;4.00;;
68910;SDS011;55953;51.650;-0.522;2022-11-20T07:43:25;7.40;;;3.90;;
68910;SDS011;55953;51.650;-0.522;2022-11-20T07:45:57;7.40;;;4.50;;
68910;SDS011;55953;51.650;-0.522;2022-11-20T07:48:25;7.30;;;4.50;;
68910;SDS011;55953;51.650;-0.522;2022-11-20T07:50:57;9.20;;;4.50;;
68910;SDS011;55953;51.650;-0.522;2022-11-20T07:53:25;6.50;;;4.20;;
68910;SDS011;55953;51.650;-0.522;2022-11-20T07:55:53;6.90;;;4.10;;
68910;SDS011;55953;51.650;-0.522;2022-11-20T07:58:21;9.20;;;4.20;;
68910;SDS011;55953;51.650;-0.522;2022-11-20T08:00:49;6.60;;;4.00;;
68910;SDS011;55953;51.650;-0.522;2022-11-20T08:03:17;7.40;;;4.00;;
68910;SDS011;55953;51.650;-0.522;2022-11-20T08:05:51;9.50;;;4.10;;
68910;SDS011;55953;51.650;-0.522;2022-11-20T08:08:19;9.00;;;4.50;;
68910;SDS011;55953;51.650;-0.522;2022-11-20T08:10:48;9.70;;;5.00;;
68910;SDS011;55953;51.650;-0.522;2022-11-20T08:13:16;8.00;;;4.30;;
68910;SDS011;55953;51.650;-0.522;2022-11-20T08:16:03;7.60;;;4.40;;
68910;SDS011;55953;51.650;-0.522;2022-11-20T08:18:31;9.80;;;4.60;;
68910;SDS011;55953;51.650;-0.522;2022-11-20T08:21:03;8.30;;;3.80;;
68910;SDS011;55953;51.650;-0.522;2022-11-20T08:23:32;6.90;;;3.00;;
68910;SDS011;55953;51.650;-0.522;2022-11-20T08:25:59;7.10;;;3.70;;
68910;SDS011;55953;51.650;-0.522;2022-11-20T08:28:27;7.90;;;3.90;;
68910;SDS011;55953;51.650;-0.522;2022-11-20T08:30:59;7.70;;;4.10;;
68910;SDS011;55953;51.650;-0.522;2022-11-20T08:33:28;8.40;;;3.60;;
68910;SDS011;55953;51.650;-0.522;2022-11-20T08:36:01;7.40;;;3.60;;
68910;SDS011;55953;51.650;-0.522;2022-11-20T08:38:30;5.80;;;3.00;;
68910;SDS011;55953;51.650;-0.522;2022-11-20T08:40:59;7.20;;;3.40;;
68910;SDS011;55953;51.650;-0.522;2022-11-20T08:43:47;10.30;;;3.20;;
68910;SDS011;55953;51.650;-0.522;2022-11-20T08:46:14;5.00;;;2.50;;
68910;SDS011;55953;51.650;-0.522;2022-11-20T08:48:43;5.80;;;3.00;;
68910;SDS011;55953;51.650;-0.522;2022-11-20T08:51:12;9.60;;;2.90;;
68910;SDS011;55953;51.650;-0.522;2022-11-20T08:53:40;9.40;;;2.50;;
68910;SDS011;55953;51.650;-0.522;2022-11-20T08:56:08;10.80;;;2.50;;
68910;SDS011;55953;51.650;-0.522;2022-11-20T08:58:39;8.90;;;2.50;;
68910;SDS011;55953;51.650;-0.522;2022-11-20T09:01:28;6.60;;;2.20;;
68910;SDS011;55953;51.650;-0.522;2022-11-20T09:03:57;9.60;;;2.30;;
68910;SDS011;55953;51.650;-0.522;2022-11-20T09:06:25;8.90;;;2.10;;
68910;SDS011;55953;51.650;-0.522;2022-11-20T09:08:53;11.10;;;2.40;;
68910;SDS011;55953;51.650;-0.522;2022-11-20T09:11:22;18.50;;;2.60;;
68910;SDS011;55953;51.650;-0.522;2022-11-20T09:13:50;11.40;;;2.30;;
68910;SDS011;55953;51.650;-0.522;2022-11-20T09:16:18;10.40;;;2.30;;
68910;SDS011;55953;51.650;-0.522;2022-11-20T09:18:45;11.30;;;2.50;;
68910;SDS011;55953;51.650;-0.522;2022-11-20T09:21:13;13.30;;;2.50;;
68910;SDS011;55953;51.650;-0.522;2022-11-20T09:23:41;12.90;;;2.70;;
68910;SDS011;55953;51.650;-0.522;2022-11-20T09:26:13;13.50;;;2.30;;
68910;SDS011;55953;51.650;-0.522;2022-11-20T09:28:42;12.40;;;2.20;;
68910;SDS011;55953;51.650;-0.522;2022-11-20T09:31:19;15.40;;;2.40;;
68910;SDS011;55953;51.650;-0.522;2022-11-20T09:33:50;14.50;;;2.30;;
68910;SDS011;55953;51.650;-0.522;2022-11-20T09:36:18;12.20;;;2.70;;
68910;SDS011;55953;51.650;-0.522;2022-11-20T09:38:46;14.70;;;2.40;;
68910;SDS011;55953;51.650;-0.522;2022-11-20T09:44:40;17.40;;;2.70;;
68910;SDS011;55953;51.650;-0.522;2022-11-20T09:50:50;15.20;;;2.60;;
68910;SDS011;55953;51.650;-0.522;2022-11-20T09:56:12;16.60;;;2.40;;
68910;SDS011;55953;51.650;-0.522;2022-11-20T09:58:50;11.40;;;1.80;;
68910;SDS011;55953;51.650;-0.522;2022-11-20T10:01:24;12.40;;;2.10;;
68910;SDS011;55953;51.650;-0.522;2022-11-20T10:04:15;14.60;;;2.30;;
68910;SDS011;55953;51.650;-0.522;2022-11-20T10:09:55;19.00;;;2.50;;
68910;SDS011;55953;51.650;-0.522;2022-11-20T10:12:37;12.80;;;2.10;;
68910;SDS011;55953;51.650;-0.522;2022-11-20T10:15:32;14.70;;;1.90;;
68910;SDS011;55953;51.650;-0.522;2022-11-20T10:18:16;16.80;;;3.70;;
68910;SDS011;55953;51.650;-0.522;2022-11-20T10:21:18;15.30;;;2.40;;
68910;SDS011;55953;51.650;-0.522;2022-11-20T10:27:06;18.60;;;1.80;;
68910;SDS011;55953;51.650;-0.522;2022-11-20T10:29:49;13.50;;;2.10;;
68910;SDS011;55953;51.650;-0.522;2022-11-20T10:32:34;18.60;;;2.70;;
68910;SDS011;55953;51.650;-0.522;2022-11-20T10:35:43;13.20;;;1.70;;
68910;SDS011;55953;51.650;-0.522;2022-11-20T10:38:23;16.70;;;2.90;;
68910;SDS011;55953;51.650;-0.522;2022-11-20T10:40:59;12.80;;;2.20;;
68910;SDS011;55953;51.650;-0.522;2022-11-20T10:43:52;16.80;;;2.70;;
68910;SDS011;55953;51.650;-0.522;2022-11-20T10:46:36;15.40;;;2.00;;
68910;SDS011;55953;51.650;-0.522;2022-11-20T10:49:13;19.90;;;2.70;;
68910;SDS011;55953;51.650;-0.522;2022-11-20T10:52:03;16.10;;;3.20;;
68910;SDS011;55953;51.650;-0.522;2022-11-20T10:54:49;17.70;;;2.90;;
68910;SDS011;55953;51.650;-0.522;2022-11-20T11:00:32;18.50;;;2.40;;
68910;SDS011;55953;51.650;-0.522;2022-11-20T11:03:00;13.90;;;2.70;;
68910;SDS011;55953;51.650;-0.522;2022-11-20T11:05:38;11.50;;;2.40;;
68910;SDS011;55953;51.650;-0.522;2022-11-20T11:08:14;19.40;;;2.80;;
68910;SDS011;55953;51.650;-0.522;2022-11-20T11:10:53;14.80;;;2.50;;
68910;SDS011;55953;51.650;-0.522;2022-11-20T11:13:27;17.00;;;3.10;;
68910;SDS011;55953;51.650;-0.522;2022-11-20T11:15:57;18.20;;;2.20;;
68910;SDS011;55953;51.650;-0.522;2022-11-20T11:18:27;19.40;;;2.40;;
68910;SDS011;55953;51.650;-0.522;2022-11-20T11:21:03;18.30;;;2.40;;
68910;SDS011;55953;51.650;-0.522;2022-11-20T11:23:40;19.40;;;2.30;;
68910;SDS011;55953;51.650;-0.522;2022-11-20T11:26:21;21.00;;;2.60;;
68910;SDS011;55953;51.650;-0.522;2022-11-20T11:31:28;16.00;;;2.10;;
68910;SDS011;55953;51.650;-0.522;2022-11-20T11:34:11;17.60;;;2.40;;
68910;SDS011;55953;51.650;-0.522;2022-11-20T11:36:40;20.10;;;2.50;;
68910;SDS011;55953;51.650;-0.522;2022-11-20T11:39:14;19.20;;;2.70;;
68910;SDS011;55953;51.650;-0.522;2022-11-20T11:41:45;14.00;;;2.70;;
68910;SDS011;55953;51.650;-0.522;2022-11-20T11:44:20;18.00;;;2.90;;
68910;SDS011;55953;51.650;-0.522;2022-11-20T11:47:24;18.40;;;2.30;;
68910;SDS011;55953;51.650;-0.522;2022-11-20T11:50:17;16.30;;;2.30;;
68910;SDS011;55953;51.650;-0.522;2022-11-20T11:53:11;10.50;;;2.20;;
68910;SDS011;55953;51.650;-0.522;2022-11-20T11:58:44;18.50;;;1.80;;
68910;SDS011;55953;51.650;-0.522;2022-11-20T12:01:20;18.90;;;2.60;;
68910;SDS011;55953;51.650;-0.522;2022-11-20T12:07:20;21.00;;;2.50;;
68910;SDS011;55953;51.650;-0.522;2022-11-20T12:10:37;12.60;;;2.10;;
68910;SDS011;55953;51.650;-0.522;2022-11-20T12:16:02;12.60;;;1.60;;
68910;SDS011;55953;51.650;-0.522;2022-11-20T12:18:31;17.70;;;2.20;;
68910;SDS011;55953;51.650;-0.522;2022-11-20T12:21:26;10.40;;;1.80;;
68910;SDS011;55953;51.650;-0.522;2022-11-20T12:30:17;16.20;;;2.00;;
68910;SDS011;55953;51.650;-0.522;2022-11-20T12:50:41;13.30;;;2.10;;
68910;SDS011;55953;51.650;-0.522;2022-11-20T12:53:45;14.10;;;2.70;;
68910;SDS011;55953;51.650;-0.522;2022-11-20T12:56:31;11.30;;;2.00;;
68910;SDS011;55953;51.650;-0.522;2022-11-20T13:08:22;17.10;;;2.20;;
68910;SDS011;55953;51.650;-0.522;2022-11-20T13:11:19;14.60;;;2.40;;
68910;SDS011;55953;51.650;-0.522;2022-11-20T13:16:54;11.50;;;1.90;;
68910;SDS011;55953;51.650;-0.522;2022-11-20T13:19:32;18.40;;;2.90;;
68910;SDS011;55953;51.650;-0.522;2022-11-20T13:22:01;17.30;;;3.00;;
68910;SDS011;55953;51.650;-0.522;2022-11-20T13:24:30;12.90;;;2.30;;
68910;SDS011;55953;51.650;-0.522;2022-11-20T13:27:18;15.20;;;2.10;;
68910;SDS011;55953;51.650;-0.522;2022-11-20T13:30:10;16.70;;;2.00;;
68910;SDS011;55953;51.650;-0.522;2022-11-20T13:33:04;14.20;;;2.00;;
68910;SDS011;55953;51.650;-0.522;2022-11-20T13:36:05;13.30;;;2.60;;
68910;SDS011;55953;51.650;-0.522;2022-11-20T13:38:49;15.10;;;2.10;;
68910;SDS011;55953;51.650;-0.522;2022-11-20T13:46:45;13.70;;;2.10;;
68910;SDS011;55953;51.650;-0.522;2022-11-20T13:49:33;12.60;;;2.20;;
68910;SDS011;55953;51.650;-0.522;2022-11-20T13:55:54;15.40;;;2.60;;
68910;SDS011;55953;51.650;-0.522;2022-11-20T14:01:23;10.60;;;1.70;;
68910;SDS011;55953;51.650;-0.522;2022-11-20T14:03:53;15.60;;;2.10;;
68910;SDS011;55953;51.650;-0.522;2022-11-20T14:06:44;14.20;;;2.40;;
68910;SDS011;55953;51.650;-0.522;2022-11-20T14:09:30;15.60;;;2.10;;
68910;SDS011;55953;51.650;-0.522;2022-11-20T14:11:59;10.80;;;2.10;;
68910;SDS011;55953;51.650;-0.522;2022-11-20T14:14:30;20.30;;;2.40;;
68910;SDS011;55953;51.650;-0.522;2022-11-20T14:20:14;18.60;;;3.40;;
68910;SDS011;55953;51.650;-0.522;2022-11-20T14:22:53;16.10;;;2.70;;
68910;SDS011;55953;51.650;-0.522;2022-11-20T14:25:24;15.70;;;2.60;;
68910;SDS011;55953;51.650;-0.522;2022-11-20T14:28:00;13.90;;;2.40;;
68910;SDS011;55953;51.650;-0.522;2022-11-20T14:30:53;15.30;;;2.60;;
68910;SDS011;55953;51.650;-0.522;2022-11-20T14:33:25;18.90;;;2.50;;
68910;SDS011;55953;51.650;-0.522;2022-11-20T14:35:56;20.70;;;3.60;;
68910;SDS011;55953;51.650;-0.522;2022-11-20T14:38:27;12.50;;;2.60;;
68910;SDS011;55953;51.650;-0.522;2022-11-20T14:41:07;11.00;;;2.30;;
68910;SDS011;55953;51.650;-0.522;2022-11-20T14:43:36;13.30;;;2.70;;
68910;SDS011;55953;51.650;-0.522;2022-11-20T14:46:07;15.30;;;1.80;;
68910;SDS011;55953;51.650;-0.522;2022-11-20T14:48:44;13.00;;;1.60;;
68910;SDS011;55953;51.650;-0.522;2022-11-20T14:51:28;13.00;;;1.90;;
68910;SDS011;55953;51.650;-0.522;2022-11-20T14:54:28;8.00;;;1.90;;
68910;SDS011;55953;51.650;-0.522;2022-11-20T14:57:00;11.20;;;1.90;;
68910;SDS011;55953;51.650;-0.522;2022-11-20T14:59:32;11.80;;;2.90;;
68910;SDS011;55953;51.650;-0.522;2022-11-20T15:02:04;11.50;;;1.60;;
68910;SDS011;55953;51.650;-0.522;2022-11-20T15:04:45;12.10;;;2.80;;
68910;SDS011;55953;51.650;-0.522;2022-11-20T15:07:30;9.10;;;2.00;;
68910;SDS011;55953;51.650;-0.522;2022-11-20T15:10:10;9.80;;;2.50;;
68910;SDS011;55953;51.650;-0.522;2022-11-20T15:12:54;7.80;;;2.40;;
68910;SDS011;55953;51.650;-0.522;2022-11-20T15:15:36;12.50;;;2.70;;
68910;SDS011;55953;51.650;-0.522;2022-11-20T15:18:15;9.90;;;2.30;;
68910;SDS011;55953;51.650;-0.522;2022-11-20T15:20:45;13.90;;;2.30;;
68910;SDS011;55953;51.650;-0.522;2022-11-20T15:23:18;12.30;;;2.60;;
68910;SDS011;55953;51.650;-0.522;2022-11-20T15:25:47;11.50;;;2.00;;
68910;SDS011;55953;51.650;-0.522;2022-11-20T15:28:31;14.70;;;2.60;;
68910;SDS011;55953;51.650;-0.522;2022-11-20T15:31:01;17.20;;;3.30;;
68910;SDS011;55953;51.650;-0.522;2022-11-20T15:33:31;8.80;;;2.60;;
68910;SDS011;55953;51.650;-0.522;2022-11-20T15:35:59;13.40;;;2.80;;
68910;SDS011;55953;51.650;-0.522;2022-11-20T15:38:27;12.80;;;2.90;;
68910;SDS011;55953;51.650;-0.522;2022-11-20T15:40:56;13.60;;;3.20;;
68910;SDS011;55953;51.650;-0.522;2022-11-20T15:43:24;8.90;;;2.60;;
68910;SDS011;55953;51.650;-0.522;2022-11-20T15:45:55;9.60;;;2.50;;
68910;SDS011;55953;51.650;-0.522;2022-11-20T15:48:29;15.50;;;2.80;;
68910;SDS011;55953;51.650;-0.522;2022-11-20T15:53:50;11.70;;;2.50;;
68910;SDS011;55953;51.650;-0.522;2022-11-20T15:56:18;10.40;;;2.30;;
68910;SDS011;55953;51.650;-0.522;2022-11-20T15:58:45;12.00;;;2.70;;
68910;SDS011;55953;51.650;-0.522;2022-11-20T16:01:15;13.80;;;2.90;;
68910;SDS011;55953;51.650;-0.522;2022-11-20T16:03:46;9.40;;;2.30;;
68910;SDS011;55953;51.650;-0.522;2022-11-20T16:06:14;10.90;;;2.90;;
68910;SDS011;55953;51.650;-0.522;2022-11-20T16:08:43;10.60;;;2.80;;
68910;SDS011;55953;51.650;-0.522;2022-11-20T16:11:13;12.70;;;2.80;;
68910;SDS011;55953;51.650;-0.522;2022-11-20T16:13:43;11.90;;;1.90;;
68910;SDS011;55953;51.650;-0.522;2022-11-20T16:16:32;9.40;;;1.60;;
68910;SDS011;55953;51.650;-0.522;2022-11-20T16:19:05;8.80;;;1.70;;
68910;SDS011;55953;51.650;-0.522;2022-11-20T16:21:32;8.50;;;1.90;;
68910;SDS011;55953;51.650;-0.522;2022-11-20T16:24:03;6.70;;;1.80;;